createdAt,value
2022-09-14T00:00:23.096Z,19.50
2022-09-14T00:02:50.885Z,19.69
2022-09-14T00:05:19.843Z,19.77
2022-09-14T00:07:47.561Z,19.76
2022-09-14T00:10:15.278Z,19.42
2022-09-14T00:12:42.848Z,19.47
2022-09-14T00:15:11.091Z,19.44
2022-09-14T00:17:38.748Z,19.22
2022-09-14T00:20:07.601Z,19.03
2022-09-14T00:22:36.567Z,18.30
2022-09-14T00:25:04.330Z,18.50
2022-09-14T00:27:31.779Z,18.93
2022-09-14T00:29:59.236Z,19.01
2022-09-14T00:32:26.698Z,19.20
2022-09-14T00:34:54.159Z,19.33
2022-09-14T00:37:21.627Z,19.43
2022-09-14T00:39:50.510Z,19.24
2022-09-14T00:42:19.570Z,18.83
2022-09-14T00:45:08.140Z,19.32
2022-09-14T00:47:36.295Z,19.51
2022-09-14T00:50:05.405Z,19.50
2022-09-14T00:52:35.580Z,19.63
2022-09-14T00:55:07.251Z,19.47
2022-09-14T00:57:38.927Z,19.59
2022-09-14T01:00:09.642Z,19.74
2022-09-14T01:02:38.303Z,19.83
2022-09-14T01:05:06.844Z,19.86
2022-09-14T01:07:46.319Z,19.96
2022-09-14T01:10:27.321Z,19.98
2022-09-14T01:13:09.524Z,20.05
2022-09-14T01:15:50.882Z,20.05
2022-09-14T01:18:23.583Z,19.51
2022-09-14T01:20:57.109Z,19.71
2022-09-14T01:23:30.341Z,19.86
2022-09-14T01:26:39.390Z,20.00
2022-09-14T01:29:13.389Z,19.96
2022-09-14T01:31:49.181Z,19.99
2022-09-14T01:34:24.810Z,19.97
2022-09-14T01:36:57.475Z,20.00
2022-09-14T01:39:25.218Z,19.95
2022-09-14T01:41:55.160Z,19.76
2022-09-14T01:44:28.444Z,19.80
2022-09-14T01:47:00.619Z,19.83
2022-09-14T01:49:34.247Z,19.81
2022-09-14T01:52:06.318Z,19.66
2022-09-14T01:54:38.785Z,19.64
2022-09-14T01:57:10.718Z,19.73
2022-09-14T01:59:44.321Z,19.67
2022-09-14T02:02:17.011Z,19.48
2022-09-14T02:04:51.162Z,19.52
2022-09-14T02:07:19.796Z,19.47
2022-09-14T02:09:48.407Z,19.56
2022-09-14T02:12:16.795Z,19.44
2022-09-14T02:14:47.026Z,19.60
2022-09-14T02:17:15.108Z,19.69
2022-09-14T02:19:47.630Z,19.37
2022-09-14T02:22:15.467Z,19.46
2022-09-14T02:24:43.076Z,19.64
2022-09-14T02:27:10.569Z,19.74
2022-09-14T02:29:38.462Z,19.76
2022-09-14T02:32:20.405Z,19.87
2022-09-14T02:34:55.789Z,19.83
2022-09-14T02:37:31.273Z,19.51
2022-09-14T02:40:06.668Z,19.37
2022-09-14T02:42:39.926Z,19.61
2022-09-14T02:45:18.446Z,19.68
2022-09-14T02:47:56.140Z,19.71
2022-09-14T02:50:30.818Z,19.56
2022-09-14T02:53:05.008Z,19.63
2022-09-14T02:55:40.353Z,19.77
2022-09-14T02:58:09.403Z,19.79
2022-09-14T03:00:40.240Z,19.78
2022-09-14T03:03:11.005Z,19.74
2022-09-14T03:05:38.724Z,19.59
2022-09-14T03:08:06.991Z,19.44
2022-09-14T03:10:34.934Z,19.50
2022-09-14T03:13:02.419Z,19.16
2022-09-14T03:15:30.358Z,19.09
2022-09-14T03:17:57.873Z,18.76
2022-09-14T03:20:29.272Z,18.95
2022-09-14T03:22:56.772Z,18.89
2022-09-14T03:25:24.246Z,19.13
2022-09-14T03:27:54.143Z,19.18
2022-09-14T03:30:21.920Z,19.19
2022-09-14T03:32:49.740Z,19.23
2022-09-14T03:35:18.323Z,19.36
2022-09-14T03:37:47.764Z,19.31
2022-09-14T03:40:20.920Z,19.28
2022-09-14T03:42:51.385Z,19.24
2022-09-14T03:45:19.976Z,19.00
2022-09-14T03:47:47.743Z,18.82
2022-09-14T03:50:16.522Z,18.44
2022-09-14T03:52:44.038Z,18.34
2022-09-14T03:55:12.858Z,18.06
2022-09-14T03:57:40.408Z,17.87
2022-09-14T04:00:09.383Z,18.13
2022-09-14T04:02:36.932Z,18.13
2022-09-14T04:05:04.771Z,18.30
2022-09-14T04:07:32.331Z,18.73
2022-09-14T04:09:59.804Z,18.72
2022-09-14T04:12:28.628Z,18.93
2022-09-14T04:14:56.094Z,18.68
2022-09-14T04:17:25.761Z,18.73
2022-09-14T04:19:53.240Z,18.92
2022-09-14T04:22:20.710Z,19.10
2022-09-14T04:24:48.245Z,19.28
2022-09-14T04:27:15.782Z,19.21
2022-09-14T04:29:45.356Z,18.63
2022-09-14T04:32:12.816Z,18.65
2022-09-14T04:34:40.275Z,18.34
2022-09-14T04:37:07.784Z,18.80
2022-09-14T04:39:35.666Z,18.84
2022-09-14T04:42:03.101Z,18.66
2022-09-14T04:44:30.568Z,18.43
2022-09-14T04:46:59.757Z,18.17
2022-09-14T04:49:27.260Z,17.73
2022-09-14T04:51:54.844Z,17.69
2022-09-14T04:54:22.326Z,17.80
2022-09-14T04:56:49.881Z,18.16
2022-09-14T04:59:17.355Z,18.01
2022-09-14T05:01:47.859Z,17.92
2022-09-14T05:04:17.232Z,17.78
2022-09-14T05:06:45.724Z,18.21
2022-09-14T05:09:14.798Z,18.47
2022-09-14T05:11:43.083Z,18.69
2022-09-14T05:14:13.010Z,18.70
2022-09-14T05:16:41.961Z,18.65
2022-09-14T05:19:13.016Z,18.57
2022-09-14T05:21:41.886Z,18.51
2022-09-14T05:24:15.853Z,18.59
2022-09-14T05:26:44.718Z,17.25
2022-09-14T05:29:14.735Z,16.12
2022-09-14T05:31:42.561Z,15.92
2022-09-14T05:34:11.035Z,16.16
2022-09-14T05:36:38.663Z,16.45
2022-09-14T05:39:08.592Z,16.88
2022-09-14T05:41:36.063Z,17.24
2022-09-14T05:44:04.058Z,17.41
2022-09-14T05:46:31.599Z,17.47
2022-09-14T05:48:59.072Z,18.35
2022-09-14T05:51:27.825Z,18.09
2022-09-14T05:53:57.683Z,17.83
2022-09-14T05:56:27.658Z,17.90
2022-09-14T05:58:55.691Z,18.17
2022-09-14T06:01:25.880Z,18.36
2022-09-14T06:03:55.264Z,18.64
2022-09-14T06:06:23.786Z,18.92
2022-09-14T06:08:54.070Z,19.14
2022-09-14T06:11:23.504Z,19.19
2022-09-14T06:13:52.705Z,18.95
2022-09-14T06:16:22.198Z,18.36
2022-09-14T06:18:50.248Z,18.04
2022-09-14T06:21:20.527Z,18.11
2022-09-14T06:23:49.531Z,18.30
2022-09-14T06:26:18.036Z,18.23
2022-09-14T06:28:45.732Z,18.55
2022-09-14T06:31:15.809Z,18.50
2022-09-14T06:33:47.242Z,18.28
2022-09-14T06:36:17.835Z,18.47
2022-09-14T06:38:45.606Z,18.57
2022-09-14T06:41:18.407Z,18.61
2022-09-14T06:43:45.994Z,18.48
2022-09-14T06:46:19.099Z,18.27
2022-09-14T06:48:48.774Z,17.97
2022-09-14T06:51:18.214Z,17.93
2022-09-14T06:53:46.509Z,17.77
2022-09-14T06:56:14.417Z,17.78
2022-09-14T06:58:42.372Z,17.83
2022-09-14T07:01:12.743Z,18.30
2022-09-14T07:03:43.484Z,18.27
2022-09-14T07:06:13.817Z,18.16
2022-09-14T07:08:41.463Z,18.41
2022-09-14T07:11:10.939Z,18.47
2022-09-14T07:13:38.861Z,18.37
2022-09-14T07:16:07.911Z,17.87
2022-09-14T07:18:35.853Z,17.56
2022-09-14T07:21:05.915Z,17.41
2022-09-14T07:23:33.999Z,17.61
2022-09-14T07:26:03.680Z,17.94
2022-09-14T07:28:32.962Z,17.95
2022-09-14T07:31:00.936Z,18.03
2022-09-14T07:33:28.912Z,18.07
2022-09-14T07:36:04.803Z,17.48
2022-09-14T07:38:51.171Z,17.30
2022-09-14T07:41:20.119Z,17.13
2022-09-14T07:43:50.147Z,17.26
2022-09-14T07:46:17.713Z,17.03
2022-09-14T07:48:45.345Z,16.96
2022-09-14T07:51:13.650Z,17.16
2022-09-14T07:53:44.332Z,17.38
2022-09-14T07:56:16.433Z,17.48
2022-09-14T07:58:44.594Z,17.40
2022-09-14T08:01:14.105Z,17.38
2022-09-14T08:03:43.386Z,17.50
2022-09-14T08:06:13.128Z,17.59
2022-09-14T08:08:44.660Z,17.61
2022-09-14T08:11:14.846Z,17.59
2022-09-14T08:13:44.634Z,17.44
2022-09-14T08:16:13.481Z,17.62
2022-09-14T08:18:41.355Z,17.90
2022-09-14T08:21:10.765Z,17.76
2022-09-14T08:23:39.064Z,17.90
2022-09-14T08:26:10.176Z,17.95
2022-09-14T08:28:38.428Z,18.24
2022-09-14T08:31:07.080Z,18.62
2022-09-14T08:33:36.469Z,18.62
2022-09-14T08:36:04.308Z,19.10
2022-09-14T08:38:31.896Z,19.07
2022-09-14T08:41:01.942Z,19.60
2022-09-14T08:43:30.830Z,20.25
2022-09-14T08:46:03.531Z,20.66
2022-09-14T08:48:35.859Z,20.57
2022-09-14T08:51:04.479Z,21.10
2022-09-14T08:53:35.456Z,21.43
2022-09-14T08:56:08.076Z,22.62
2022-09-14T08:58:49.248Z,23.24
2022-09-14T09:01:24.542Z,23.83
2022-09-14T09:04:03.149Z,23.79
2022-09-14T09:06:40.937Z,24.20
2022-09-14T09:09:19.871Z,24.66
2022-09-14T09:11:51.962Z,25.43
2022-09-14T09:14:23.880Z,26.16
2022-09-14T09:16:54.847Z,26.90
2022-09-14T09:19:28.568Z,26.99
2022-09-14T09:21:56.934Z,27.30
2022-09-14T09:24:29.090Z,27.17
2022-09-14T09:26:56.675Z,26.94
2022-09-14T09:29:25.750Z,26.37
2022-09-14T09:31:56.256Z,25.68
2022-09-14T09:34:27.520Z,25.09
2022-09-14T09:36:56.733Z,24.24
2022-09-14T09:39:25.838Z,23.65
2022-09-14T09:41:58.368Z,23.03
2022-09-14T09:44:27.314Z,22.88
2022-09-14T09:46:57.707Z,22.94
2022-09-14T09:49:30.117Z,22.55
2022-09-14T09:52:07.280Z,22.65
2022-09-14T09:54:34.991Z,22.86
2022-09-14T09:57:04.987Z,23.90
2022-09-14T09:59:37.239Z,25.38
2022-09-14T10:02:24.669Z,26.07
2022-09-14T10:05:01.146Z,27.07
2022-09-14T10:07:30.700Z,27.58
2022-09-14T10:10:00.497Z,27.12
2022-09-14T10:12:28.936Z,26.69
2022-09-14T10:15:16.295Z,26.36
2022-09-14T10:17:55.559Z,26.44
2022-09-14T10:20:25.079Z,26.45
2022-09-14T10:22:52.979Z,24.72
2022-09-14T10:25:25.986Z,24.74
2022-09-14T10:28:01.112Z,24.62
2022-09-14T10:30:35.387Z,24.43
2022-09-14T10:33:05.454Z,23.77
2022-09-14T10:35:43.073Z,23.73
2022-09-14T10:38:30.818Z,23.23
2022-09-14T10:41:06.475Z,23.21
2022-09-14T10:43:45.176Z,23.67
2022-09-14T10:46:21.517Z,23.86
2022-09-14T10:49:05.208Z,24.32
2022-09-14T10:51:46.155Z,24.28
2022-09-14T10:54:28.980Z,24.43
2022-09-14T10:57:09.763Z,24.78
2022-09-14T10:59:45.897Z,24.53
2022-09-14T11:02:35.408Z,24.99
2022-09-14T11:05:13.148Z,24.14
2022-09-14T11:07:52.812Z,24.48
2022-09-14T11:10:27.728Z,24.68
2022-09-14T11:13:25.823Z,25.54
2022-09-14T11:16:02.143Z,25.50
2022-09-14T11:18:38.155Z,24.36
2022-09-14T11:21:16.779Z,23.48
2022-09-14T11:23:52.256Z,23.19
2022-09-14T11:26:31.325Z,23.65
2022-09-14T11:29:03.950Z,23.49
2022-09-14T11:31:35.765Z,23.13
2022-09-14T11:34:15.871Z,23.08
2022-09-14T11:36:49.313Z,22.91
2022-09-14T11:39:20.378Z,23.09
2022-09-14T11:41:52.988Z,23.37
2022-09-14T11:44:24.300Z,23.14
2022-09-14T11:47:00.641Z,23.43
2022-09-14T11:49:40.526Z,22.94
2022-09-14T11:52:14.680Z,23.50
2022-09-14T11:54:46.604Z,23.82
2022-09-14T11:57:18.470Z,24.17
2022-09-14T11:59:54.258Z,24.74
2022-09-14T12:03:14.902Z,24.58
2022-09-14T12:05:45.122Z,23.97
2022-09-14T12:08:40.527Z,24.39
2022-09-14T12:11:32.180Z,24.53
2022-09-14T12:14:15.050Z,24.44
2022-09-14T12:17:22.506Z,24.76
2022-09-14T12:19:57.020Z,24.49
2022-09-14T12:22:33.159Z,23.77
2022-09-14T12:25:16.198Z,23.85
2022-09-14T12:27:44.995Z,24.08
2022-09-14T12:30:45.866Z,24.19
2022-09-14T12:33:43.525Z,24.00
2022-09-14T12:36:12.384Z,24.24
2022-09-14T12:38:56.856Z,23.90
2022-09-14T12:42:01.628Z,23.31
2022-09-14T12:44:31.172Z,23.24
2022-09-14T12:46:59.005Z,23.46
2022-09-14T12:49:31.761Z,23.42
2022-09-14T12:52:05.562Z,24.08
2022-09-14T12:54:51.208Z,23.84
2022-09-14T12:57:31.488Z,23.99
2022-09-14T13:00:11.356Z,24.09
2022-09-14T13:02:58.937Z,23.83
2022-09-14T13:05:30.331Z,23.90
2022-09-14T13:07:57.896Z,23.89
2022-09-14T13:10:32.906Z,23.84
2022-09-14T13:13:02.311Z,23.39
2022-09-14T13:15:33.589Z,23.92
2022-09-14T13:18:03.694Z,24.40
2022-09-14T13:20:32.411Z,25.05
2022-09-14T13:23:00.219Z,24.81
2022-09-14T13:25:33.932Z,25.16
2022-09-14T13:28:03.668Z,25.22
2022-09-14T13:30:33.203Z,25.29
2022-09-14T13:33:01.362Z,26.12
2022-09-14T13:35:32.922Z,26.26
2022-09-14T13:38:14.346Z,25.66
2022-09-14T13:40:43.269Z,25.96
2022-09-14T13:43:11.418Z,26.77
2022-09-14T13:45:40.434Z,27.31
2022-09-14T13:48:08.682Z,26.61
2022-09-14T13:50:36.230Z,26.84
2022-09-14T13:53:04.472Z,25.26
2022-09-14T13:55:45.211Z,25.24
2022-09-14T13:58:22.204Z,25.19
2022-09-14T14:00:59.016Z,26.08
2022-09-14T14:03:31.809Z,26.48
2022-09-14T14:06:00.042Z,26.48
2022-09-14T14:08:37.554Z,26.02
2022-09-14T14:11:08.701Z,26.81
2022-09-14T14:13:38.514Z,26.27
2022-09-14T14:16:18.862Z,25.73
2022-09-14T14:18:52.579Z,26.59
2022-09-14T14:21:29.299Z,26.98
2022-09-14T14:24:18.675Z,27.69
2022-09-14T14:26:52.385Z,27.95
2022-09-14T14:29:20.213Z,28.35
2022-09-14T14:31:48.287Z,28.18
2022-09-14T14:34:21.370Z,28.11
2022-09-14T14:36:50.185Z,27.82
2022-09-14T14:39:19.770Z,27.36
2022-09-14T14:41:48.307Z,27.23
2022-09-14T14:44:21.121Z,27.24
2022-09-14T14:46:48.989Z,27.49
2022-09-14T14:49:19.323Z,27.76
2022-09-14T14:51:47.801Z,27.76
2022-09-14T14:54:16.595Z,27.04
2022-09-14T14:56:46.378Z,26.63
2022-09-14T14:59:27.131Z,26.93
2022-09-14T15:01:55.306Z,27.00
2022-09-14T15:04:23.039Z,27.26
2022-09-14T15:06:51.172Z,28.10
2022-09-14T15:09:20.883Z,28.67
2022-09-14T15:11:48.813Z,28.97
2022-09-14T15:14:18.175Z,29.09
2022-09-14T15:16:47.784Z,28.78
2022-09-14T15:19:15.830Z,27.71
2022-09-14T15:21:44.555Z,28.11
2022-09-14T15:24:12.312Z,28.06
2022-09-14T15:26:39.762Z,27.72
2022-09-14T15:29:07.236Z,27.37
2022-09-14T15:31:34.923Z,27.03
2022-09-14T15:34:03.785Z,27.02
2022-09-14T15:36:43.436Z,26.92
2022-09-14T15:39:13.380Z,26.50
2022-09-14T15:41:41.442Z,26.54
2022-09-14T15:44:09.453Z,26.33
2022-09-14T15:46:38.709Z,26.11
2022-09-14T15:49:09.516Z,25.91
2022-09-14T15:51:36.950Z,25.03
2022-09-14T15:54:05.271Z,22.78
2022-09-14T15:56:32.746Z,21.40
2022-09-14T15:59:01.420Z,19.37
2022-09-14T16:01:29.553Z,18.75
2022-09-14T16:03:58.498Z,18.74
2022-09-14T16:06:28.185Z,18.73
2022-09-14T16:08:57.543Z,18.37
2022-09-14T16:11:25.262Z,18.55
2022-09-14T16:13:52.881Z,18.01
2022-09-14T16:16:21.540Z,17.74
2022-09-14T16:18:50.755Z,17.73
2022-09-14T16:21:21.519Z,18.22
2022-09-14T16:23:53.027Z,19.03
2022-09-14T16:26:22.903Z,19.51
2022-09-14T16:28:52.096Z,20.29
2022-09-14T16:31:21.283Z,20.79
2022-09-14T16:33:51.412Z,20.95
2022-09-14T16:36:21.419Z,20.84
2022-09-14T16:38:50.272Z,20.51
2022-09-14T16:41:17.749Z,20.80
2022-09-14T16:43:45.646Z,21.12
2022-09-14T16:46:14.823Z,21.51
2022-09-14T16:48:44.293Z,21.68
2022-09-14T16:51:12.780Z,21.73
2022-09-14T16:53:44.062Z,21.67
2022-09-14T16:56:15.208Z,21.63
2022-09-14T16:58:43.966Z,21.46
2022-09-14T17:01:15.323Z,21.19
2022-09-14T17:03:43.860Z,21.28
2022-09-14T17:06:13.866Z,21.52
2022-09-14T17:08:43.948Z,21.63
2022-09-14T17:11:14.606Z,21.65
2022-09-14T17:13:44.354Z,21.58
2022-09-14T17:16:13.441Z,20.86
2022-09-14T17:18:42.432Z,20.27
2022-09-14T17:21:12.543Z,20.11
2022-09-14T17:23:40.894Z,19.87
2022-09-14T17:26:10.323Z,19.62
2022-09-14T17:28:40.264Z,19.69
2022-09-14T17:31:09.267Z,19.96
2022-09-14T17:33:36.930Z,20.28
2022-09-14T17:36:06.580Z,20.56
2022-09-14T17:38:36.306Z,20.70
2022-09-14T17:41:05.280Z,20.73
2022-09-14T17:43:33.398Z,20.73
2022-09-14T17:46:02.835Z,20.68
2022-09-14T17:48:33.258Z,20.73
2022-09-14T17:51:00.822Z,20.85
2022-09-14T17:53:28.692Z,20.73
2022-09-14T17:56:02.588Z,20.66
2022-09-14T17:58:30.072Z,20.56
2022-09-14T18:01:06.475Z,20.67
2022-09-14T18:03:34.073Z,20.76
2022-09-14T18:06:01.638Z,20.71
2022-09-14T18:08:29.320Z,20.56
2022-09-14T18:10:57.236Z,20.33
2022-09-14T18:13:24.800Z,20.06
2022-09-14T18:15:56.832Z,20.00
2022-09-14T18:18:25.832Z,19.81
2022-09-14T18:20:53.270Z,19.69
2022-09-14T18:23:20.712Z,19.11
2022-09-14T18:25:48.152Z,19.08
2022-09-14T18:28:15.633Z,19.18
2022-09-14T18:30:43.834Z,19.33
2022-09-14T18:33:11.434Z,19.59
2022-09-14T18:35:40.699Z,19.53
2022-09-14T18:38:08.391Z,19.12
2022-09-14T18:40:36.064Z,19.56
2022-09-14T18:43:03.937Z,19.65
2022-09-14T18:45:31.884Z,19.68
2022-09-14T18:47:59.404Z,19.59
2022-09-14T18:50:26.861Z,19.66
2022-09-14T18:52:55.643Z,19.52
2022-09-14T18:55:23.686Z,19.41
2022-09-14T18:57:51.833Z,19.58
2022-09-14T19:00:19.679Z,19.55
2022-09-14T19:02:53.422Z,19.87
2022-09-14T19:05:21.486Z,19.73
2022-09-14T19:07:49.010Z,19.40
2022-09-14T19:10:17.946Z,19.57
2022-09-14T19:12:45.692Z,19.64
2022-09-14T19:15:13.173Z,19.46
2022-09-14T19:17:40.641Z,19.40
2022-09-14T19:20:09.511Z,19.47
2022-09-14T19:22:36.969Z,19.29
2022-09-14T19:25:05.288Z,19.38
2022-09-14T19:27:34.139Z,19.57
2022-09-14T19:30:01.996Z,19.36
2022-09-14T19:32:29.682Z,19.27
2022-09-14T19:34:57.742Z,19.58
2022-09-14T19:37:25.219Z,19.25
2022-09-14T19:39:53.211Z,19.29
2022-09-14T19:42:23.890Z,19.59
2022-09-14T19:44:53.265Z,19.82
2022-09-14T19:47:20.747Z,19.86
2022-09-14T19:49:49.617Z,19.76
2022-09-14T19:52:17.044Z,19.62
2022-09-14T19:54:44.506Z,19.64
2022-09-14T19:57:11.941Z,19.91
2022-09-14T19:59:39.406Z,19.61
2022-09-14T20:02:10.700Z,19.41
2022-09-14T20:04:38.503Z,19.56
2022-09-14T20:07:07.466Z,19.46
2022-09-14T20:09:35.022Z,20.10
2022-09-14T20:12:02.912Z,19.75
2022-09-14T20:14:30.410Z,19.96
2022-09-14T20:16:59.842Z,20.02
2022-09-14T20:19:31.039Z,19.96
2022-09-14T20:21:58.863Z,19.60
2022-09-14T20:24:28.065Z,19.96
2022-09-14T20:26:57.117Z,19.70
2022-09-14T20:29:26.031Z,19.64
2022-09-14T20:31:53.649Z,19.48
2022-09-14T20:34:21.834Z,19.11
2022-09-14T20:36:52.051Z,19.15
2022-09-14T20:39:21.609Z,19.06
2022-09-14T20:41:49.434Z,19.19
2022-09-14T20:44:21.830Z,19.15
2022-09-14T20:46:49.922Z,19.08
2022-09-14T20:49:20.550Z,19.03
2022-09-14T20:51:47.971Z,19.08
2022-09-14T20:54:18.223Z,18.94
2022-09-14T20:56:46.532Z,19.16
2022-09-14T20:59:16.550Z,19.27
2022-09-14T21:01:45.727Z,19.48
2022-09-14T21:04:14.820Z,19.28
2022-09-14T21:06:45.369Z,19.30
2022-09-14T21:09:13.657Z,19.03
2022-09-14T21:11:45.576Z,18.81
2022-09-14T21:14:13.760Z,18.82
2022-09-14T21:16:43.649Z,18.58
2022-09-14T21:19:13.477Z,18.56
2022-09-14T21:21:40.994Z,18.62
2022-09-14T21:24:10.480Z,18.49
2022-09-14T21:26:42.421Z,18.64
2022-09-14T21:29:14.098Z,18.77
2022-09-14T21:31:41.929Z,18.79
2022-09-14T21:34:10.186Z,18.73
2022-09-14T21:36:39.401Z,18.73
2022-09-14T21:39:10.974Z,18.69
2022-09-14T21:41:39.967Z,18.93
2022-09-14T21:44:08.109Z,18.76
2022-09-14T21:46:37.251Z,18.70
2022-09-14T21:49:04.966Z,18.65
2022-09-14T21:51:34.896Z,18.58
2022-09-14T21:54:06.052Z,18.47
2022-09-14T21:56:40.376Z,18.74
2022-09-14T21:59:09.724Z,18.71
2022-09-14T22:01:38.960Z,18.48
2022-09-14T22:04:07.875Z,18.81
2022-09-14T22:06:35.641Z,18.84
2022-09-14T22:09:03.679Z,18.88
2022-09-14T22:11:33.851Z,18.68
2022-09-14T22:14:03.468Z,18.65
2022-09-14T22:16:33.895Z,18.57
2022-09-14T22:19:05.418Z,18.28
2022-09-14T22:21:35.495Z,18.32
2022-09-14T22:24:06.190Z,18.58
2022-09-14T22:26:34.384Z,18.77
2022-09-14T22:29:02.546Z,19.06
2022-09-14T22:31:30.944Z,18.83
2022-09-14T22:33:59.169Z,18.84
2022-09-14T22:36:28.376Z,18.38
2022-09-14T22:38:56.552Z,18.32
2022-09-14T22:41:25.926Z,18.33
2022-09-14T22:43:54.138Z,18.05
2022-09-14T22:46:22.351Z,18.02
2022-09-14T22:48:50.527Z,18.31
2022-09-14T22:51:20.354Z,18.68
2022-09-14T22:53:49.139Z,19.14
2022-09-14T22:56:18.631Z,18.89
2022-09-14T22:58:47.116Z,18.96
2022-09-14T23:01:18.023Z,19.09
2022-09-14T23:03:46.024Z,19.19
2022-09-14T23:06:13.793Z,19.11
2022-09-14T23:08:41.820Z,19.19
2022-09-14T23:11:12.883Z,19.27
2022-09-14T23:13:41.719Z,19.05
2022-09-14T23:16:14.031Z,18.75
2022-09-14T23:18:42.051Z,18.62
2022-09-14T23:21:10.344Z,18.52
2022-09-14T23:23:39.077Z,18.21
2022-09-14T23:26:08.307Z,18.17
2022-09-14T23:28:38.134Z,17.65
2022-09-14T23:31:06.562Z,17.25
2022-09-14T23:33:34.981Z,17.24
2022-09-14T23:36:02.792Z,17.35
2022-09-14T23:38:30.227Z,17.63
2022-09-14T23:40:58.456Z,17.86
2022-09-14T23:43:25.931Z,18.01
2022-09-14T23:45:54.819Z,17.70
2022-09-14T23:48:22.823Z,17.83
2022-09-14T23:50:57.497Z,17.97
2022-09-14T23:53:25.053Z,18.41
2022-09-14T23:55:52.906Z,18.39
2022-09-14T23:58:20.674Z,18.47
